createdAt,value
2023-06-25T00:00:45.542Z,100958.41
2023-06-25T00:03:13.220Z,100962.72
2023-06-25T00:09:26.878Z,100959.72
2023-06-25T00:11:53.354Z,100949.94
2023-06-25T00:14:19.763Z,100952.59
2023-06-25T00:16:46.285Z,100954.00
2023-06-25T00:19:12.701Z,100952.53
2023-06-25T00:21:39.848Z,100948.56
2023-06-25T00:24:06.689Z,100955.03
2023-06-25T00:26:33.102Z,100949.31
2023-06-25T00:28:59.604Z,100952.78
2023-06-25T00:31:25.945Z,100952.31
2023-06-25T00:33:52.313Z,100950.66
2023-06-25T00:36:18.841Z,100940.34
2023-06-25T00:38:45.432Z,100940.50
2023-06-25T00:41:13.130Z,100941.28
2023-06-25T00:43:42.984Z,100943.34
2023-06-25T00:46:13.965Z,100942.22
2023-06-25T00:48:46.599Z,100940.72
2023-06-25T00:51:17.748Z,100931.22
2023-06-25T00:53:44.417Z,100936.09
2023-06-25T00:56:12.659Z,100936.75
2023-06-25T00:58:40.319Z,100940.06
2023-06-25T01:01:19.566Z,100939.50
2023-06-25T01:03:56.149Z,100940.50
2023-06-25T01:06:30.590Z,100944.19
2023-06-25T01:09:00.471Z,100935.28
2023-06-25T01:11:30.103Z,100937.31
2023-06-25T01:13:56.698Z,100938.41
2023-06-25T01:16:23.652Z,100932.50
2023-06-25T01:19:03.259Z,100931.84
2023-06-25T01:21:32.313Z,100928.19
2023-06-25T01:23:59.123Z,100933.28
2023-06-25T01:26:25.680Z,100930.56
2023-06-25T01:28:56.918Z,100929.22
2023-06-25T01:31:25.780Z,100936.91
2023-06-25T01:33:52.562Z,100920.97
2023-06-25T01:36:19.193Z,100917.75
2023-06-25T01:38:45.646Z,100928.81
2023-06-25T01:41:12.095Z,100927.69
2023-06-25T01:43:38.443Z,100920.66
2023-06-25T01:46:04.866Z,100922.66
2023-06-25T01:48:31.788Z,100916.53
2023-06-25T01:50:58.758Z,100919.94
2023-06-25T01:53:25.247Z,100906.53
2023-06-25T01:55:53.369Z,100915.69
2023-06-25T01:58:19.771Z,100913.16
2023-06-25T02:00:46.169Z,100915.22
2023-06-25T02:03:12.725Z,100907.72
2023-06-25T02:05:39.340Z,100902.28
2023-06-25T02:08:06.034Z,100903.38
2023-06-25T02:10:33.737Z,100901.31
2023-06-25T02:13:00.133Z,100905.41
2023-06-25T02:15:26.723Z,100906.38
2023-06-25T02:17:53.184Z,100900.47
2023-06-25T02:20:20.331Z,100903.53
2023-06-25T02:22:49.059Z,100902.41
2023-06-25T02:25:15.502Z,100898.53
2023-06-25T02:27:41.905Z,100897.81
2023-06-25T02:30:10.034Z,100893.03
2023-06-25T02:32:36.577Z,100903.31
2023-06-25T02:35:03.427Z,100894.19
2023-06-25T02:37:29.793Z,100897.06
2023-06-25T02:39:56.192Z,100901.31
2023-06-25T02:42:22.785Z,100892.75
2023-06-25T02:44:49.246Z,100895.88
2023-06-25T02:47:15.658Z,100902.06
2023-06-25T02:49:42.103Z,100901.22
2023-06-25T02:52:08.785Z,100893.34
2023-06-25T02:54:35.131Z,100889.59
2023-06-25T02:57:01.513Z,100892.88
2023-06-25T02:59:27.851Z,100886.78
2023-06-25T03:01:54.262Z,100898.50
2023-06-25T03:04:20.641Z,100890.03
2023-06-25T03:06:47.097Z,100893.75
2023-06-25T03:09:13.465Z,100897.69
2023-06-25T03:11:39.877Z,100890.44
2023-06-25T03:14:06.345Z,100890.38
2023-06-25T03:16:33.322Z,100892.41
2023-06-25T03:19:01.364Z,100890.53
2023-06-25T03:21:27.816Z,100896.66
2023-06-25T03:23:54.209Z,100886.50
2023-06-25T03:26:20.605Z,100881.25
2023-06-25T03:28:47.016Z,100878.88
2023-06-25T03:31:13.447Z,100883.31
2023-06-25T03:33:39.947Z,100882.28
2023-06-25T03:36:06.560Z,100874.84
2023-06-25T03:38:32.970Z,100881.91
2023-06-25T03:40:59.608Z,100881.59
2023-06-25T03:43:26.006Z,100877.38
2023-06-25T03:45:52.422Z,100874.38
2023-06-25T03:48:18.952Z,100880.78
2023-06-25T03:50:45.530Z,100872.31
2023-06-25T03:53:12.199Z,100877.03
2023-06-25T03:55:38.739Z,100877.03
2023-06-25T03:58:05.251Z,100871.41
2023-06-25T04:00:32.300Z,100872.97
2023-06-25T04:02:58.748Z,100867.41
2023-06-25T04:05:25.276Z,100874.56
2023-06-25T04:07:51.637Z,100872.75
2023-06-25T04:10:18.152Z,100861.38
2023-06-25T04:12:44.491Z,100862.94
2023-06-25T04:15:11.084Z,100872.06
2023-06-25T04:17:38.023Z,100867.66
2023-06-25T04:20:04.972Z,100876.31
2023-06-25T04:22:31.312Z,100870.84
2023-06-25T04:24:57.665Z,100863.34
2023-06-25T04:27:24.082Z,100870.09
2023-06-25T04:29:50.490Z,100872.31
2023-06-25T04:32:17.631Z,100870.06
2023-06-25T04:34:44.134Z,100870.25
2023-06-25T04:37:10.467Z,100870.88
2023-06-25T04:39:36.921Z,100875.97
2023-06-25T04:42:03.438Z,100862.47
2023-06-25T04:44:29.995Z,100864.47
2023-06-25T04:46:56.400Z,100859.50
2023-06-25T04:49:23.129Z,100867.13
2023-06-25T04:51:49.658Z,100869.19
2023-06-25T04:54:16.269Z,100870.31
2023-06-25T04:56:42.758Z,100873.75
2023-06-25T04:59:09.163Z,100871.81
2023-06-25T05:01:35.727Z,100877.34
2023-06-25T05:04:02.179Z,100875.44
2023-06-25T05:06:29.124Z,100872.34
2023-06-25T05:08:56.817Z,100875.78
2023-06-25T05:11:23.180Z,100882.84
2023-06-25T05:13:49.585Z,100873.09
2023-06-25T05:16:16.017Z,100874.31
2023-06-25T05:18:42.990Z,100877.41
2023-06-25T05:21:09.426Z,100878.84
2023-06-25T05:23:56.829Z,100876.97
2023-06-25T05:26:23.173Z,100868.38
2023-06-25T05:28:49.564Z,100878.56
2023-06-25T05:31:16.007Z,100879.59
2023-06-25T05:33:42.381Z,100877.84
2023-06-25T05:36:08.712Z,100883.28
2023-06-25T05:38:35.261Z,100880.88
2023-06-25T05:41:01.679Z,100877.03
2023-06-25T05:43:28.057Z,100878.66
2023-06-25T05:45:54.539Z,100878.78
2023-06-25T05:48:20.954Z,100876.19
2023-06-25T05:50:47.384Z,100875.66
2023-06-25T05:53:13.953Z,100885.38
2023-06-25T05:55:40.475Z,100881.19
2023-06-25T05:58:07.046Z,100879.72
2023-06-25T06:00:33.406Z,100878.69
2023-06-25T06:02:59.855Z,100885.69
2023-06-25T06:05:26.273Z,100885.75
2023-06-25T06:07:52.714Z,100883.97
2023-06-25T06:10:19.156Z,100882.31
2023-06-25T06:12:45.660Z,100879.78
2023-06-25T06:15:12.109Z,100880.41
2023-06-25T06:20:05.633Z,100888.22
2023-06-25T06:22:32.057Z,100886.75
2023-06-25T06:24:58.559Z,100888.47
2023-06-25T06:27:24.949Z,100891.19
2023-06-25T06:29:51.340Z,100897.72
2023-06-25T06:32:17.706Z,100883.00
2023-06-25T06:34:44.072Z,100884.47
2023-06-25T06:37:10.473Z,100889.13
2023-06-25T06:39:36.882Z,100887.47
2023-06-25T06:42:03.471Z,100887.47
2023-06-25T06:44:29.932Z,100884.28
2023-06-25T06:46:56.449Z,100889.53
2023-06-25T06:49:22.936Z,100889.94
2023-06-25T06:51:49.359Z,100893.06
2023-06-25T06:54:15.783Z,100888.19
2023-06-25T06:56:42.379Z,100887.13
2023-06-25T06:59:08.824Z,100896.00
2023-06-25T07:01:35.531Z,100897.81
2023-06-25T07:06:52.793Z,100887.41
2023-06-25T07:09:25.223Z,100889.88
2023-06-25T07:11:52.081Z,100893.63
2023-06-25T07:14:18.494Z,100894.81
2023-06-25T07:16:45.470Z,100894.63
2023-06-25T07:19:11.850Z,100891.41
2023-06-25T07:21:38.754Z,100902.31
2023-06-25T07:24:05.927Z,100893.81
2023-06-25T07:26:32.432Z,100898.13
2023-06-25T07:28:58.814Z,100886.41
2023-06-25T07:31:25.276Z,100889.09
2023-06-25T07:33:51.819Z,100885.81
2023-06-25T07:36:18.219Z,100879.41
2023-06-25T07:38:44.630Z,100894.06
2023-06-25T07:41:11.085Z,100889.66
2023-06-25T07:43:37.496Z,100888.56
2023-06-25T07:46:04.042Z,100883.53
2023-06-25T07:48:30.449Z,100894.34
2023-06-25T07:50:57.113Z,100894.50
2023-06-25T07:53:23.722Z,100898.75
2023-06-25T07:56:01.976Z,100891.41
2023-06-25T07:58:29.569Z,100890.91
2023-06-25T08:00:55.971Z,100889.97
2023-06-25T08:03:25.334Z,100884.53
2023-06-25T08:05:52.181Z,100881.03
2023-06-25T08:08:18.580Z,100875.31
2023-06-25T08:10:45.008Z,100881.28
2023-06-25T08:13:11.516Z,100888.81
2023-06-25T08:15:38.160Z,100887.00
2023-06-25T08:18:04.733Z,100876.94
2023-06-25T08:20:31.723Z,100879.06
2023-06-25T08:22:58.169Z,100876.06
2023-06-25T08:25:26.170Z,100880.50
2023-06-25T08:27:52.680Z,100880.16
2023-06-25T08:30:19.344Z,100882.88
2023-06-25T08:32:45.714Z,100872.28
2023-06-25T08:35:12.158Z,100870.56
2023-06-25T08:37:38.561Z,100867.84
2023-06-25T08:40:05.658Z,100874.56
2023-06-25T08:42:32.782Z,100871.22
2023-06-25T08:44:59.285Z,100870.72
2023-06-25T08:47:37.719Z,100877.78
2023-06-25T08:50:04.832Z,100864.84
2023-06-25T08:52:31.924Z,100865.84
2023-06-25T08:54:58.505Z,100867.59
2023-06-25T08:57:24.982Z,100866.94
2023-06-25T08:59:51.364Z,100856.84
2023-06-25T09:02:17.833Z,100856.25
2023-06-25T09:04:44.385Z,100855.78
2023-06-25T09:07:17.907Z,100856.00
2023-06-25T09:09:44.429Z,100852.50
2023-06-25T09:12:11.477Z,100855.19
2023-06-25T09:14:37.889Z,100850.63
2023-06-25T09:17:06.097Z,100848.75
2023-06-25T09:19:32.469Z,100840.41
2023-06-25T09:21:59.926Z,100841.06
2023-06-25T09:24:27.287Z,100842.06
2023-06-25T09:26:54.829Z,100837.19
2023-06-25T09:29:22.646Z,100833.56
2023-06-25T09:31:49.922Z,100832.25
2023-06-25T09:34:18.127Z,100824.28
2023-06-25T09:36:45.923Z,100819.69
2023-06-25T09:39:13.427Z,100814.03
2023-06-25T09:41:44.370Z,100817.69
2023-06-25T09:44:11.807Z,100812.78
2023-06-25T09:46:40.451Z,100819.41
2023-06-25T09:49:08.596Z,100809.22
2023-06-25T09:51:41.545Z,100806.53
2023-06-25T09:54:09.793Z,100803.56
2023-06-25T09:56:39.367Z,100804.53
2023-06-25T09:59:06.014Z,100802.84
2023-06-25T10:01:32.858Z,100792.09
2023-06-25T10:03:59.560Z,100792.38
2023-06-25T10:06:26.113Z,100789.00
2023-06-25T10:08:52.616Z,100792.09
2023-06-25T10:11:19.098Z,100791.47
2023-06-25T10:13:45.558Z,100793.06
2023-06-25T10:16:26.487Z,100788.66
2023-06-25T10:19:00.894Z,100785.75
2023-06-25T10:21:27.335Z,100779.47
2023-06-25T10:23:58.300Z,100786.34
2023-06-25T10:26:34.106Z,100783.09
2023-06-25T10:29:02.359Z,100779.06
2023-06-25T10:31:38.251Z,100775.78
2023-06-25T10:34:08.752Z,100772.41
2023-06-25T10:36:35.216Z,100766.31
2023-06-25T10:39:01.837Z,100764.91
2023-06-25T10:41:32.786Z,100764.53
2023-06-25T10:43:59.535Z,100754.50
2023-06-25T10:46:35.449Z,100750.31
2023-06-25T10:49:03.073Z,100755.91
2023-06-25T10:51:30.153Z,100739.53
2023-06-25T10:53:57.365Z,100741.75
2023-06-25T10:56:24.103Z,100738.13
2023-06-25T10:58:59.659Z,100740.91
2023-06-25T11:01:33.927Z,100742.59
2023-06-25T11:04:00.387Z,100732.34
2023-06-25T11:06:26.924Z,100730.94
2023-06-25T11:08:55.089Z,100724.28
2023-06-25T11:11:23.595Z,100716.44
2023-06-25T11:13:50.135Z,100717.88
2023-06-25T11:16:16.563Z,100709.25
2023-06-25T11:18:44.342Z,100703.72
2023-06-25T11:21:10.859Z,100701.16
2023-06-25T11:23:37.339Z,100705.06
2023-06-25T11:26:04.299Z,100709.28
2023-06-25T11:28:30.989Z,100697.06
2023-06-25T11:30:59.602Z,100699.50
2023-06-25T11:33:26.171Z,100697.31
2023-06-25T11:35:52.764Z,100688.16
2023-06-25T11:38:29.366Z,100700.34
2023-06-25T11:40:59.374Z,100688.38
2023-06-25T11:43:26.961Z,100688.41
2023-06-25T11:45:53.964Z,100690.81
2023-06-25T11:48:21.461Z,100689.22
2023-06-25T11:50:50.978Z,100687.56
2023-06-25T11:53:17.318Z,100684.38
2023-06-25T11:55:43.826Z,100680.31
2023-06-25T11:58:11.344Z,100670.28
2023-06-25T12:00:40.217Z,100675.31
2023-06-25T12:03:08.349Z,100682.53
2023-06-25T12:05:34.879Z,100679.50
2023-06-25T12:08:01.378Z,100670.66
2023-06-25T12:10:27.944Z,100670.69
2023-06-25T12:12:55.882Z,100668.28
2023-06-25T12:15:22.707Z,100665.53
2023-06-25T12:17:49.111Z,100665.13
2023-06-25T12:20:15.603Z,100658.22
2023-06-25T12:22:42.115Z,100652.88
2023-06-25T12:25:08.673Z,100655.38
2023-06-25T12:27:36.858Z,100651.50
2023-06-25T12:30:03.820Z,100652.53
2023-06-25T12:32:30.293Z,100641.13
2023-06-25T12:34:56.678Z,100641.94
2023-06-25T12:37:23.186Z,100632.28
2023-06-25T12:39:49.603Z,100628.25
2023-06-25T12:42:16.014Z,100625.59
2023-06-25T12:44:42.410Z,100624.69
2023-06-25T12:47:08.779Z,100623.72
2023-06-25T12:49:35.166Z,100627.63
2023-06-25T12:52:02.329Z,100626.50
2023-06-25T12:54:28.743Z,100626.16
2023-06-25T12:56:55.132Z,100620.41
2023-06-25T12:59:21.596Z,100622.19
2023-06-25T13:01:48.083Z,100626.84
2023-06-25T13:04:14.581Z,100617.25
2023-06-25T13:06:41.428Z,100614.22
2023-06-25T13:09:07.857Z,100621.53
2023-06-25T13:11:35.492Z,100605.50
2023-06-25T13:14:01.985Z,100608.00
2023-06-25T13:16:28.843Z,100606.13
2023-06-25T13:18:55.262Z,100611.81
2023-06-25T13:21:22.129Z,100601.78
2023-06-25T13:23:48.499Z,100602.19
2023-06-25T13:26:14.926Z,100602.63
2023-06-25T13:28:41.333Z,100598.34
2023-06-25T13:31:07.825Z,100603.66
2023-06-25T13:33:34.208Z,100602.66
2023-06-25T13:36:00.654Z,100596.81
2023-06-25T13:38:27.072Z,100592.88
2023-06-25T13:40:53.476Z,100587.53
2023-06-25T13:43:19.905Z,100581.81
2023-06-25T13:45:46.343Z,100586.28
2023-06-25T13:48:12.829Z,100581.66
2023-06-25T13:50:39.273Z,100587.88
2023-06-25T13:53:05.688Z,100582.94
2023-06-25T13:55:32.205Z,100589.09
2023-06-25T13:57:59.124Z,100586.78
2023-06-25T14:00:25.608Z,100578.66
2023-06-25T14:03:06.782Z,100573.94
2023-06-25T14:05:38.287Z,100568.69
2023-06-25T14:08:07.192Z,100574.63
2023-06-25T14:10:34.072Z,100559.97
2023-06-25T14:13:02.273Z,100561.16
2023-06-25T14:15:29.379Z,100558.91
2023-06-25T14:17:56.442Z,100556.56
2023-06-25T14:20:22.909Z,100563.91
2023-06-25T14:22:49.292Z,100554.38
2023-06-25T14:25:15.731Z,100552.16
2023-06-25T14:27:42.208Z,100547.03
2023-06-25T14:30:09.315Z,100557.06
2023-06-25T14:32:35.796Z,100545.13
2023-06-25T14:35:02.142Z,100546.59
2023-06-25T14:37:28.538Z,100534.59
2023-06-25T14:39:57.940Z,100544.06
2023-06-25T14:42:24.292Z,100540.69
2023-06-25T14:44:50.889Z,100537.97
2023-06-25T14:47:17.366Z,100542.16
2023-06-25T14:49:43.838Z,100537.50
2023-06-25T14:52:10.243Z,100532.28
2023-06-25T14:54:36.667Z,100526.84
2023-06-25T14:57:03.241Z,100526.44
2023-06-25T14:59:29.604Z,100520.69
2023-06-25T15:01:55.988Z,100515.72
2023-06-25T15:04:24.003Z,100511.81
2023-06-25T15:06:50.803Z,100513.75
2023-06-25T15:09:17.396Z,100518.97
2023-06-25T15:11:44.342Z,100518.03
2023-06-25T15:14:10.707Z,100513.22
2023-06-25T15:16:37.081Z,100506.84
2023-06-25T15:19:03.633Z,100508.66
2023-06-25T15:21:31.475Z,100495.91
2023-06-25T15:23:57.826Z,100498.50
2023-06-25T15:26:24.181Z,100495.69
2023-06-25T15:28:50.610Z,100489.50
2023-06-25T15:31:17.161Z,100489.50
2023-06-25T15:33:43.717Z,100492.06
2023-06-25T15:36:10.090Z,100475.81
2023-06-25T15:38:36.459Z,100477.47
2023-06-25T15:41:02.848Z,100466.63
2023-06-25T15:43:29.729Z,100463.94
2023-06-25T15:45:56.283Z,100467.31
2023-06-25T15:48:22.954Z,100469.44
2023-06-25T15:50:49.344Z,100466.09
2023-06-25T15:53:18.680Z,100466.56
2023-06-25T15:55:45.059Z,100469.69
2023-06-25T15:58:12.326Z,100452.78
2023-06-25T16:00:39.226Z,100456.28
2023-06-25T16:03:07.594Z,100457.91
2023-06-25T16:05:34.375Z,100450.38
2023-06-25T16:08:01.077Z,100446.31
2023-06-25T16:10:29.215Z,100441.34
2023-06-25T16:12:56.230Z,100445.66
2023-06-25T16:15:22.699Z,100447.75
2023-06-25T16:17:49.211Z,100449.84
2023-06-25T16:20:15.625Z,100452.91
2023-06-25T16:22:42.006Z,100441.97
2023-06-25T16:25:09.174Z,100439.88
2023-06-25T16:27:35.581Z,100444.16
2023-06-25T16:30:05.222Z,100438.78
2023-06-25T16:32:33.116Z,100441.50
2023-06-25T16:34:59.649Z,100435.84
2023-06-25T16:37:26.273Z,100433.75
2023-06-25T16:39:52.659Z,100439.19
2023-06-25T16:42:19.186Z,100440.06
2023-06-25T16:44:47.424Z,100438.94
2023-06-25T16:47:13.826Z,100433.06
2023-06-25T16:49:43.604Z,100438.25
2023-06-25T16:52:10.057Z,100434.00
2023-06-25T16:54:36.680Z,100426.41
2023-06-25T16:57:03.323Z,100435.84
2023-06-25T16:59:29.912Z,100444.72
2023-06-25T17:02:00.719Z,100438.00
2023-06-25T17:04:27.122Z,100431.00
2023-06-25T17:06:53.564Z,100423.00
2023-06-25T17:09:20.006Z,100427.59
2023-06-25T17:11:46.398Z,100431.91
2023-06-25T17:14:12.727Z,100426.09
2023-06-25T17:16:39.161Z,100424.66
2023-06-25T17:19:05.577Z,100419.84
2023-06-25T17:21:31.962Z,100421.25
2023-06-25T17:23:58.356Z,100420.72
2023-06-25T17:26:24.989Z,100427.00
2023-06-25T17:28:51.344Z,100424.19
2023-06-25T17:31:17.883Z,100419.09
2023-06-25T17:33:44.271Z,100424.41
2023-06-25T17:36:10.717Z,100426.34
2023-06-25T17:38:37.070Z,100425.78
2023-06-25T17:41:03.505Z,100428.03
2023-06-25T17:43:30.368Z,100432.84
2023-06-25T17:45:57.049Z,100427.06
2023-06-25T17:48:23.574Z,100425.69
2023-06-25T17:50:52.649Z,100420.41
2023-06-25T17:53:20.313Z,100427.53
2023-06-25T17:55:46.842Z,100424.09
2023-06-25T17:58:13.255Z,100421.88
2023-06-25T18:00:39.638Z,100421.31
2023-06-25T18:03:06.289Z,100432.13
2023-06-25T18:05:32.788Z,100427.72
2023-06-25T18:07:59.239Z,100423.53
2023-06-25T18:10:25.622Z,100424.41
2023-06-25T18:12:52.108Z,100426.34
2023-06-25T18:15:19.374Z,100426.09
2023-06-25T18:17:46.694Z,100422.22
2023-06-25T18:20:13.518Z,100423.59
2023-06-25T18:22:40.271Z,100425.84
2023-06-25T18:25:07.175Z,100425.00
2023-06-25T18:27:33.550Z,100417.78
2023-06-25T18:30:00.052Z,100421.09
2023-06-25T18:32:26.703Z,100416.69
2023-06-25T18:34:53.134Z,100416.69
2023-06-25T18:37:19.577Z,100426.13
2023-06-25T18:39:46.005Z,100420.28
2023-06-25T18:42:12.494Z,100421.66
2023-06-25T18:44:38.878Z,100423.03
2023-06-25T18:47:06.354Z,100419.69
2023-06-25T18:49:33.058Z,100416.06
2023-06-25T18:51:59.508Z,100416.09
2023-06-25T18:54:25.889Z,100410.53
2023-06-25T18:56:52.398Z,100417.09
2023-06-25T18:59:18.739Z,100410.72
2023-06-25T19:01:45.133Z,100412.91
2023-06-25T19:04:13.832Z,100403.66
2023-06-25T19:06:41.061Z,100406.44
2023-06-25T19:09:09.379Z,100399.06
2023-06-25T19:11:35.787Z,100405.41
2023-06-25T19:14:03.285Z,100407.25
2023-06-25T19:16:29.713Z,100410.97
2023-06-25T19:18:56.114Z,100411.97
2023-06-25T19:21:22.538Z,100410.53
2023-06-25T19:23:50.028Z,100408.28
2023-06-25T19:26:16.468Z,100403.19
2023-06-25T19:28:42.902Z,100404.66
2023-06-25T19:31:09.368Z,100414.59
2023-06-25T19:33:35.830Z,100411.50
2023-06-25T19:36:02.227Z,100410.75
2023-06-25T19:38:30.830Z,100406.34
2023-06-25T19:40:57.254Z,100405.13
2023-06-25T19:43:23.636Z,100405.56
2023-06-25T19:45:50.585Z,100418.06
2023-06-25T19:48:17.566Z,100420.75
2023-06-25T19:50:44.171Z,100422.22
2023-06-25T19:53:10.538Z,100429.78
2023-06-25T19:55:36.951Z,100421.72
2023-06-25T19:58:03.315Z,100426.22
2023-06-25T20:00:29.867Z,100417.69
2023-06-25T20:02:56.429Z,100417.38
2023-06-25T20:05:22.981Z,100419.97
2023-06-25T20:07:50.001Z,100420.66
2023-06-25T20:10:19.411Z,100426.44
2023-06-25T20:12:48.089Z,100423.84
2023-06-25T20:15:16.916Z,100427.69
2023-06-25T20:17:43.346Z,100421.28
2023-06-25T20:20:10.289Z,100425.44
2023-06-25T20:22:36.722Z,100421.75
2023-06-25T20:25:03.535Z,100423.34
2023-06-25T20:27:29.880Z,100427.31
2023-06-25T20:29:57.488Z,100425.06
2023-06-25T20:32:25.474Z,100421.25
2023-06-25T20:34:51.975Z,100428.22
2023-06-25T20:37:18.330Z,100424.28
2023-06-25T20:39:44.721Z,100420.50
2023-06-25T20:42:11.055Z,100428.28
2023-06-25T20:44:37.841Z,100426.59
2023-06-25T20:47:04.499Z,100433.19
2023-06-25T20:49:31.002Z,100421.38
2023-06-25T20:51:58.239Z,100432.50
2023-06-25T20:54:25.477Z,100430.13
2023-06-25T20:56:51.826Z,100417.34
2023-06-25T20:59:18.278Z,100422.84
2023-06-25T21:01:44.733Z,100424.41
2023-06-25T21:04:11.229Z,100425.94
2023-06-25T21:06:37.719Z,100428.81
2023-06-25T21:09:05.006Z,100430.97
2023-06-25T21:11:34.254Z,100432.25
2023-06-25T21:14:00.616Z,100428.88
2023-06-25T21:16:26.991Z,100431.41
2023-06-25T21:18:53.424Z,100426.38
2023-06-25T21:21:19.935Z,100434.94
2023-06-25T21:23:46.277Z,100436.72
2023-06-25T21:26:12.647Z,100431.78
2023-06-25T21:28:39.001Z,100430.56
2023-06-25T21:31:05.384Z,100434.25
2023-06-25T21:33:31.821Z,100434.56
2023-06-25T21:35:59.495Z,100431.72
2023-06-25T21:38:26.095Z,100436.44
2023-06-25T21:40:52.469Z,100437.44
2023-06-25T21:43:18.846Z,100433.34
2023-06-25T21:45:45.699Z,100431.91
2023-06-25T21:48:12.179Z,100436.00
2023-06-25T21:50:38.780Z,100431.91
2023-06-25T21:53:06.540Z,100431.38
2023-06-25T21:55:32.857Z,100433.97
2023-06-25T21:57:59.238Z,100431.09
2023-06-25T22:00:26.264Z,100433.28
2023-06-25T22:02:52.797Z,100436.94
2023-06-25T22:05:19.197Z,100425.19
2023-06-25T22:07:45.710Z,100434.94
2023-06-25T22:10:12.187Z,100429.28
2023-06-25T22:12:40.260Z,100435.03
2023-06-25T22:15:07.191Z,100433.41
2023-06-25T22:17:33.567Z,100431.88
2023-06-25T22:19:59.997Z,100432.22
2023-06-25T22:22:26.384Z,100431.31
2023-06-25T22:24:52.889Z,100427.22
2023-06-25T22:27:19.322Z,100430.34
2023-06-25T22:29:47.586Z,100429.13
2023-06-25T22:32:15.353Z,100437.84
2023-06-25T22:34:42.020Z,100431.56
2023-06-25T22:37:08.535Z,100430.34
2023-06-25T22:39:34.926Z,100431.41
2023-06-25T22:42:01.284Z,100425.75
2023-06-25T22:44:27.677Z,100427.88
2023-06-25T22:46:54.105Z,100419.91
2023-06-25T22:49:20.500Z,100428.09
2023-06-25T22:51:49.483Z,100422.03
2023-06-25T22:54:16.520Z,100421.38
2023-06-25T22:56:43.036Z,100416.19
2023-06-25T22:59:09.450Z,100410.97
2023-06-25T23:01:35.891Z,100418.31
2023-06-25T23:04:02.562Z,100413.50
2023-06-25T23:06:29.325Z,100415.75
2023-06-25T23:08:55.732Z,100410.28
2023-06-25T23:11:22.113Z,100422.53
2023-06-25T23:13:49.476Z,100417.50
2023-06-25T23:16:20.281Z,100422.97
2023-06-25T23:18:48.814Z,100408.91
2023-06-25T23:21:15.308Z,100413.34
2023-06-25T23:23:41.793Z,100415.44
2023-06-25T23:26:09.178Z,100412.31
2023-06-25T23:28:36.132Z,100409.59
2023-06-25T23:31:04.496Z,100405.81
2023-06-25T23:33:33.547Z,100408.78
2023-06-25T23:36:00.733Z,100409.63
2023-06-25T23:38:27.262Z,100407.75
2023-06-25T23:40:53.608Z,100410.91
2023-06-25T23:43:20.098Z,100415.50
2023-06-25T23:45:46.642Z,100413.81
2023-06-25T23:48:13.074Z,100401.63
2023-06-25T23:50:39.689Z,100408.56
2023-06-25T23:53:06.331Z,100416.75
2023-06-25T23:55:32.817Z,100415.50
2023-06-25T23:57:59.220Z,100414.22
